createdAt,value
2023-01-07T00:02:14.955Z,2.97
2023-01-07T00:07:35.830Z,1.58
2023-01-07T00:12:56.731Z,2.20
2023-01-07T00:18:17.462Z,1.70
2023-01-07T00:23:39.985Z,1.60
2023-01-07T00:29:01.113Z,2.03
2023-01-07T00:34:23.616Z,2.55
2023-01-07T00:39:44.157Z,1.27
2023-01-07T00:45:05.265Z,2.05
2023-01-07T00:50:32.317Z,2.35
2023-01-07T00:55:53.331Z,1.67
2023-01-07T01:01:14.131Z,2.78
2023-01-07T01:06:35.265Z,1.38
2023-01-07T01:11:56.033Z,1.50
2023-01-07T01:17:17.267Z,3.13
2023-01-07T01:22:38.296Z,2.15
2023-01-07T01:27:59.452Z,1.55
2023-01-07T01:33:20.436Z,1.80
2023-01-07T01:38:42.021Z,2.08
2023-01-07T01:44:35.754Z,1.83
2023-01-07T01:50:21.969Z,1.52
2023-01-07T01:55:48.652Z,3.40
2023-01-07T02:01:09.780Z,2.63
2023-01-07T02:06:34.416Z,0.80
2023-01-07T02:12:09.020Z,2.92
2023-01-07T02:17:49.623Z,2.33
2023-01-07T02:28:54.388Z,1.88
2023-01-07T02:34:28.594Z,1.67
2023-01-07T02:40:06.888Z,1.75
2023-01-07T02:45:30.869Z,1.58
2023-01-07T02:50:52.407Z,1.30
2023-01-07T02:56:28.451Z,0.75
2023-01-07T03:02:09.724Z,1.10
2023-01-07T03:08:04.544Z,1.42
2023-01-07T03:13:35.268Z,1.38
2023-01-07T03:19:07.039Z,1.52
2023-01-07T03:24:31.221Z,0.85
2023-01-07T03:29:54.191Z,1.10
2023-01-07T03:35:15.483Z,1.20
2023-01-07T03:40:37.470Z,2.58
2023-01-07T03:45:59.728Z,1.30
2023-01-07T03:51:21.957Z,1.02
2023-01-07T03:56:43.207Z,1.25
2023-01-07T04:02:04.111Z,4.18
2023-01-07T04:07:25.917Z,1.98
2023-01-07T04:12:46.529Z,1.00
2023-01-07T04:18:08.655Z,1.05
2023-01-07T04:23:29.572Z,1.05
2023-01-07T04:28:50.302Z,2.08
2023-01-07T04:34:11.125Z,0.88
2023-01-07T04:39:31.831Z,0.70
2023-01-07T04:44:53.419Z,0.80
2023-01-07T04:50:14.862Z,1.40
2023-01-07T04:55:36.110Z,1.08
2023-01-07T05:00:59.421Z,0.70
2023-01-07T05:06:22.034Z,1.58
2023-01-07T05:11:42.780Z,1.75
2023-01-07T05:17:04.523Z,1.10
2023-01-07T05:22:26.511Z,3.08
2023-01-07T05:27:47.513Z,1.48
2023-01-07T05:33:08.927Z,3.90
2023-01-07T05:38:31.401Z,0.85
2023-01-07T05:43:51.987Z,1.55
2023-01-07T05:49:12.989Z,0.82
2023-01-07T05:54:33.939Z,1.70
2023-01-07T05:59:54.664Z,1.38
2023-01-07T06:05:15.485Z,1.17
2023-01-07T06:10:37.001Z,0.90
2023-01-07T06:16:06.629Z,2.90
2023-01-07T06:21:27.602Z,0.83
2023-01-07T06:26:48.538Z,3.17
2023-01-07T06:32:10.096Z,0.80
2023-01-07T06:37:31.087Z,1.48
2023-01-07T06:42:51.910Z,0.93
2023-01-07T06:48:12.564Z,2.95
2023-01-07T06:53:33.353Z,1.58
2023-01-07T06:58:54.045Z,1.20
2023-01-07T07:04:15.005Z,1.23
2023-01-07T07:09:35.915Z,2.40
2023-01-07T07:14:56.582Z,2.13
2023-01-07T07:20:17.261Z,0.57
2023-01-07T07:25:38.136Z,1.75
2023-01-07T07:30:58.839Z,3.22
2023-01-07T07:36:19.557Z,0.77
2023-01-07T07:41:40.378Z,1.83
2023-01-07T07:47:03.513Z,1.17
2023-01-07T07:52:24.844Z,1.35
2023-01-07T07:57:45.456Z,0.88
2023-01-07T08:03:06.651Z,2.00
2023-01-07T08:08:27.500Z,1.38
2023-01-07T08:13:48.202Z,2.90
2023-01-07T08:19:09.040Z,0.80
2023-01-07T08:24:29.831Z,0.85
2023-01-07T08:29:50.598Z,1.58
2023-01-07T08:35:11.926Z,8.88
2023-01-07T08:40:33.236Z,9.88
2023-01-07T08:45:54.377Z,5.30
2023-01-07T08:51:15.133Z,10.30
2023-01-07T08:56:35.762Z,5.40
2023-01-07T09:01:56.554Z,9.77
2023-01-07T09:07:17.084Z,12.23
2023-01-07T09:12:38.438Z,10.73
2023-01-07T09:17:59.218Z,7.47
2023-01-07T09:23:19.799Z,1.98
2023-01-07T09:28:40.370Z,1.95
2023-01-07T09:34:01.577Z,3.70
2023-01-07T09:39:22.620Z,8.85
2023-01-07T09:44:52.483Z,25.25
2023-01-07T09:56:11.477Z,7.88
2023-01-07T10:01:27.347Z,5.20
2023-01-07T10:07:19.917Z,4.15
2023-01-07T10:13:30.671Z,2.80
2023-01-07T10:18:54.328Z,5.80
2023-01-07T10:24:27.468Z,5.25
2023-01-07T10:29:55.474Z,7.60
2023-01-07T10:35:21.411Z,12.48
2023-01-07T10:40:50.642Z,2.55
2023-01-07T10:46:39.342Z,1.65
2023-01-07T10:52:09.523Z,0.50
2023-01-07T10:57:31.886Z,0.68
2023-01-07T11:02:58.237Z,2.30
2023-01-07T11:08:50.132Z,1.90
2023-01-07T11:14:24.557Z,2.33
2023-01-07T11:19:49.237Z,2.42
2023-01-07T11:25:29.162Z,1.90
2023-01-07T11:31:01.286Z,6.77
2023-01-07T11:36:39.402Z,4.63
2023-01-07T11:42:26.256Z,5.40
2023-01-07T11:47:48.189Z,5.10
2023-01-07T11:53:15.100Z,2.20
2023-01-07T11:58:39.157Z,10.23
2023-01-07T12:04:00.047Z,4.32
2023-01-07T12:09:25.922Z,5.25
2023-01-07T12:14:47.816Z,4.38
2023-01-07T12:20:33.947Z,4.15
2023-01-07T12:26:04.547Z,1.30
2023-01-07T12:31:40.254Z,0.95
2023-01-07T12:37:13.459Z,1.17
2023-01-07T12:42:39.314Z,1.05
2023-01-07T12:48:06.767Z,1.92
2023-01-07T12:53:42.583Z,1.48
2023-01-07T12:59:46.518Z,1.65
2023-01-07T13:04:55.313Z,2.25
2023-01-07T13:10:23.505Z,0.88
2023-01-07T13:15:44.464Z,0.85
2023-01-07T13:21:08.874Z,0.35
2023-01-07T13:27:09.489Z,0.73
2023-01-07T13:32:55.250Z,0.70
2023-01-07T13:38:41.811Z,1.83
2023-01-07T13:44:05.754Z,1.13
2023-01-07T13:49:36.370Z,1.73
2023-01-07T13:55:03.650Z,2.78
2023-01-07T14:00:44.047Z,2.47
2023-01-07T14:11:56.181Z,2.10
2023-01-07T14:17:32.362Z,1.25
2023-01-07T14:23:10.669Z,2.08
2023-01-07T14:28:56.433Z,1.75
2023-01-07T14:34:24.339Z,1.52
2023-01-07T14:39:46.667Z,3.60
2023-01-07T14:45:41.638Z,4.28
2023-01-07T14:51:21.604Z,9.68
2023-01-07T14:56:51.717Z,16.58
2023-01-07T15:08:33.532Z,3.80
2023-01-07T15:14:22.173Z,5.18
2023-01-07T15:19:44.377Z,8.18
2023-01-07T15:25:26.964Z,8.23
2023-01-07T15:31:07.084Z,10.63
2023-01-07T15:36:30.350Z,10.13
2023-01-07T15:41:56.486Z,5.32
2023-01-07T15:47:43.564Z,6.15
2023-01-07T15:53:10.749Z,8.55
2023-01-07T15:58:48.962Z,21.40
2023-01-07T16:04:42.008Z,22.55
2023-01-07T16:10:04.380Z,36.10
2023-01-07T16:15:33.985Z,20.17
2023-01-07T16:20:58.391Z,13.10
2023-01-07T16:26:24.853Z,8.85
2023-01-07T16:31:46.497Z,8.70
2023-01-07T16:37:15.215Z,9.57
2023-01-07T16:42:36.425Z,8.00
2023-01-07T16:48:20.313Z,13.57
2023-01-07T16:53:41.363Z,11.57
2023-01-07T16:59:02.177Z,10.15
2023-01-07T17:04:29.934Z,10.20
2023-01-07T17:09:58.043Z,7.75
2023-01-07T17:15:41.651Z,7.63
2023-01-07T17:21:05.002Z,9.57
2023-01-07T17:26:28.211Z,6.40
2023-01-07T17:31:49.809Z,12.95
2023-01-07T17:37:14.725Z,11.68
2023-01-07T17:42:53.965Z,12.30
2023-01-07T17:48:15.195Z,15.43
2023-01-07T17:53:45.693Z,14.32
2023-01-07T17:59:09.770Z,12.25
2023-01-07T18:04:30.517Z,12.90
2023-01-07T18:09:51.429Z,14.05
2023-01-07T18:15:18.002Z,12.38
2023-01-07T18:20:38.779Z,11.60
2023-01-07T18:25:59.838Z,13.30
2023-01-07T18:31:20.990Z,22.83
2023-01-07T18:36:42.287Z,18.38
2023-01-07T18:42:03.196Z,13.45
2023-01-07T18:47:23.992Z,11.48
2023-01-07T18:52:44.974Z,14.52
2023-01-07T18:58:06.653Z,26.55
2023-01-07T19:03:27.990Z,23.25
2023-01-07T19:08:49.103Z,16.67
2023-01-07T19:14:10.651Z,10.30
2023-01-07T19:19:39.962Z,8.65
2023-01-07T19:25:08.672Z,9.30
2023-01-07T19:30:31.977Z,10.15
2023-01-07T19:36:04.430Z,14.68
2023-01-07T19:41:26.160Z,18.33
2023-01-07T19:46:47.722Z,50.40
2023-01-07T19:52:08.598Z,44.63
2023-01-07T19:57:29.467Z,24.13
2023-01-07T20:02:50.882Z,27.13
2023-01-07T20:08:11.798Z,18.38
2023-01-07T20:13:34.922Z,11.10
2023-01-07T20:18:56.776Z,20.58
2023-01-07T20:24:17.680Z,9.30
2023-01-07T20:29:38.815Z,15.15
2023-01-07T20:34:59.737Z,9.30
2023-01-07T20:40:21.962Z,11.10
2023-01-07T20:45:44.220Z,23.15
2023-01-07T20:51:07.443Z,15.32
2023-01-07T20:56:32.243Z,17.15
2023-01-07T21:01:53.714Z,28.02
2023-01-07T21:07:14.605Z,10.02
2023-01-07T21:12:35.462Z,13.25
2023-01-07T21:17:56.318Z,9.75
2023-01-07T21:23:17.595Z,11.07
2023-01-07T21:28:38.246Z,12.88
2023-01-07T21:33:59.154Z,19.55
2023-01-07T21:39:19.855Z,15.57
2023-01-07T21:44:40.778Z,24.42
2023-01-07T21:50:01.936Z,20.88
2023-01-07T21:55:22.704Z,24.65
2023-01-07T22:00:43.322Z,26.38
2023-01-07T22:06:09.049Z,24.85
2023-01-07T22:11:29.768Z,33.90
2023-01-07T22:16:50.508Z,27.27
2023-01-07T22:22:11.719Z,23.67
2023-01-07T22:27:32.197Z,22.27
2023-01-07T22:32:52.947Z,19.92
2023-01-07T22:38:14.525Z,14.35
2023-01-07T22:43:36.693Z,12.20
2023-01-07T22:48:58.951Z,12.48
2023-01-07T22:54:19.771Z,9.50
2023-01-07T22:59:40.999Z,8.88
2023-01-07T23:05:01.844Z,15.50
2023-01-07T23:10:22.547Z,29.05
2023-01-07T23:15:43.129Z,22.73
2023-01-07T23:21:05.109Z,23.83
2023-01-07T23:26:26.250Z,27.67
2023-01-07T23:31:47.224Z,17.48
2023-01-07T23:37:08.141Z,19.08
2023-01-07T23:42:28.917Z,22.42
2023-01-07T23:47:49.637Z,15.85
2023-01-07T23:53:10.294Z,14.48
2023-01-07T23:58:31.777Z,9.52
